createdAt,value
2022-11-03T00:01:01.786Z,0.00
2022-11-03T00:03:29.338Z,0.00
2022-11-03T00:06:06.320Z,0.00
2022-11-03T00:08:33.970Z,1.00
2022-11-03T00:11:01.938Z,0.00
2022-11-03T00:13:29.535Z,0.00
2022-11-03T00:15:57.082Z,0.00
2022-11-03T00:18:24.639Z,1.00
2022-11-03T00:20:52.208Z,0.50
2022-11-03T00:23:20.226Z,0.00
2022-11-03T00:25:47.785Z,0.00
2022-11-03T00:28:15.662Z,1.00
2022-11-03T00:30:43.276Z,1.00
2022-11-03T00:33:10.839Z,0.25
2022-11-03T00:35:38.813Z,1.00
2022-11-03T00:38:06.387Z,0.00
2022-11-03T00:40:33.900Z,1.00
2022-11-03T00:43:01.530Z,1.00
2022-11-03T00:45:29.118Z,0.00
2022-11-03T00:48:10.847Z,0.00
2022-11-03T00:50:38.375Z,0.00
2022-11-03T00:53:06.069Z,0.00
2022-11-03T00:55:33.903Z,1.00
2022-11-03T00:58:01.415Z,0.25
2022-11-03T01:00:29.281Z,0.00
2022-11-03T01:02:56.880Z,0.00
2022-11-03T01:05:41.717Z,0.00
2022-11-03T01:08:09.786Z,0.00
2022-11-03T01:10:37.752Z,0.75
2022-11-03T01:13:05.523Z,1.00
2022-11-03T01:15:33.311Z,0.00
2022-11-03T01:18:00.839Z,0.00
2022-11-03T01:20:28.835Z,0.00
2022-11-03T01:22:56.765Z,0.00
2022-11-03T01:25:25.563Z,0.00
2022-11-03T01:27:53.125Z,0.00
2022-11-03T01:30:21.022Z,0.75
2022-11-03T01:32:50.397Z,0.25
2022-11-03T01:35:18.320Z,0.50
2022-11-03T01:37:45.881Z,0.00
2022-11-03T01:40:13.406Z,0.00
2022-11-03T01:42:40.947Z,0.25
2022-11-03T01:45:09.537Z,0.00
2022-11-03T01:47:37.483Z,0.25
2022-11-03T01:50:05.015Z,0.75
2022-11-03T01:52:34.161Z,0.00
2022-11-03T01:55:01.683Z,0.00
2022-11-03T01:57:29.388Z,1.00
2022-11-03T01:59:58.381Z,0.50
2022-11-03T02:02:26.038Z,0.00
2022-11-03T02:04:53.598Z,0.00
2022-11-03T02:07:21.162Z,0.75
2022-11-03T02:09:49.514Z,0.00
2022-11-03T02:12:17.426Z,0.00
2022-11-03T02:14:45.293Z,1.00
2022-11-03T02:17:12.836Z,1.00
2022-11-03T02:19:40.361Z,1.00
2022-11-03T02:22:08.008Z,0.00
2022-11-03T02:24:35.979Z,0.00
2022-11-03T02:27:03.475Z,0.50
2022-11-03T02:29:31.056Z,0.00
2022-11-03T02:31:58.593Z,0.00
2022-11-03T02:34:26.880Z,1.00
2022-11-03T02:36:55.061Z,0.00
2022-11-03T02:39:22.609Z,0.00
2022-11-03T02:41:50.123Z,0.25
2022-11-03T02:44:17.694Z,0.50
2022-11-03T02:46:45.283Z,0.00
2022-11-03T02:49:13.269Z,0.00
2022-11-03T02:51:40.846Z,0.00
2022-11-03T02:54:08.392Z,0.00
2022-11-03T02:56:35.916Z,0.25
2022-11-03T02:59:06.498Z,0.00
2022-11-03T03:01:35.252Z,0.00
2022-11-03T03:04:02.929Z,0.00
2022-11-03T03:06:30.615Z,0.00
2022-11-03T03:08:58.421Z,0.25
2022-11-03T03:11:39.016Z,0.00
2022-11-03T03:14:07.228Z,0.00
2022-11-03T03:16:34.808Z,0.00
2022-11-03T03:19:02.366Z,0.00
2022-11-03T03:21:29.892Z,0.00
2022-11-03T03:23:57.431Z,0.75
2022-11-03T03:26:25.009Z,0.50
2022-11-03T03:28:52.561Z,0.25
2022-11-03T03:31:20.120Z,0.00
2022-11-03T03:33:48.084Z,1.00
2022-11-03T03:36:16.150Z,0.00
2022-11-03T03:38:43.709Z,0.00
2022-11-03T03:41:11.281Z,0.00
2022-11-03T03:43:38.836Z,0.00
2022-11-03T03:46:06.350Z,0.00
2022-11-03T03:48:34.231Z,0.50
2022-11-03T03:51:01.763Z,0.00
2022-11-03T03:53:29.323Z,0.75
2022-11-03T03:55:56.971Z,0.00
2022-11-03T03:58:24.516Z,0.00
2022-11-03T04:00:52.574Z,1.00
2022-11-03T04:03:20.513Z,0.00
2022-11-03T04:05:48.079Z,1.00
2022-11-03T04:08:15.623Z,0.00
2022-11-03T04:11:04.034Z,0.75
2022-11-03T04:13:48.862Z,1.00
2022-11-03T04:16:33.988Z,0.00
2022-11-03T04:19:18.934Z,0.25
2022-11-03T04:22:06.625Z,0.00
2022-11-03T04:24:34.456Z,0.00
2022-11-03T04:27:01.991Z,0.25
2022-11-03T04:29:29.553Z,0.00
2022-11-03T04:31:57.092Z,0.00
2022-11-03T04:34:24.965Z,0.00
2022-11-03T04:36:52.525Z,0.25
2022-11-03T04:39:20.045Z,0.25
2022-11-03T04:41:47.624Z,0.00
2022-11-03T04:44:15.176Z,0.00
2022-11-03T04:46:46.237Z,0.00
2022-11-03T04:49:13.773Z,0.00
2022-11-03T04:51:41.367Z,0.00
2022-11-03T04:54:08.875Z,0.00
2022-11-03T04:56:36.455Z,0.50
2022-11-03T04:59:04.271Z,0.00
2022-11-03T05:01:31.921Z,0.00
2022-11-03T05:03:59.612Z,1.00
2022-11-03T05:06:27.180Z,0.00
2022-11-03T05:08:54.704Z,0.00
2022-11-03T05:11:23.549Z,0.75
2022-11-03T05:13:51.144Z,1.00
2022-11-03T05:16:19.031Z,0.00
2022-11-03T05:18:46.581Z,0.00
2022-11-03T05:21:14.196Z,0.75
2022-11-03T05:23:42.633Z,0.00
2022-11-03T05:26:10.205Z,0.50
2022-11-03T05:28:38.110Z,0.50
2022-11-03T05:31:05.650Z,0.00
2022-11-03T05:33:33.207Z,0.00
2022-11-03T05:36:02.591Z,0.00
2022-11-03T05:38:30.140Z,0.50
2022-11-03T05:40:57.728Z,0.00
2022-11-03T05:43:25.354Z,0.00
2022-11-03T05:45:52.994Z,0.25
2022-11-03T05:48:21.515Z,0.25
2022-11-03T05:50:49.411Z,0.00
2022-11-03T05:53:16.961Z,0.00
2022-11-03T05:55:44.533Z,0.00
2022-11-03T05:58:12.176Z,0.00
2022-11-03T06:00:47.124Z,0.00
2022-11-03T06:03:16.204Z,1.00
2022-11-03T06:05:43.795Z,0.00
2022-11-03T06:08:11.378Z,0.00
2022-11-03T06:10:39.081Z,0.00
2022-11-03T06:13:10.253Z,0.50
2022-11-03T06:15:38.897Z,0.00
2022-11-03T06:18:06.529Z,0.00
2022-11-03T06:20:34.102Z,0.00
2022-11-03T06:23:01.693Z,0.00
2022-11-03T06:25:30.956Z,0.00
2022-11-03T06:27:58.807Z,0.75
2022-11-03T06:30:26.610Z,0.00
2022-11-03T06:32:54.307Z,1.00
2022-11-03T06:35:22.258Z,0.00
2022-11-03T06:37:50.687Z,0.00
2022-11-03T06:40:18.314Z,0.00
2022-11-03T06:42:45.909Z,0.00
2022-11-03T06:45:13.490Z,0.50
2022-11-03T06:47:41.166Z,0.00
2022-11-03T06:50:10.167Z,0.00
2022-11-03T06:52:37.807Z,0.00
2022-11-03T06:55:05.518Z,0.00
2022-11-03T06:57:33.374Z,0.00
2022-11-03T07:00:20.407Z,1.00
2022-11-03T07:02:50.545Z,0.00
2022-11-03T07:05:18.089Z,0.00
2022-11-03T07:07:45.651Z,0.00
2022-11-03T07:10:13.327Z,0.00
2022-11-03T07:12:40.944Z,0.00
2022-11-03T07:15:09.492Z,0.00
2022-11-03T07:17:37.471Z,0.00
2022-11-03T07:20:05.225Z,0.25
2022-11-03T07:22:32.793Z,0.00
2022-11-03T07:25:00.452Z,0.50
2022-11-03T07:27:29.988Z,0.00
2022-11-03T07:29:57.598Z,0.00
2022-11-03T07:32:25.222Z,0.00
2022-11-03T07:34:52.900Z,0.00
2022-11-03T07:37:20.539Z,0.25
2022-11-03T07:39:49.280Z,0.50
2022-11-03T07:42:16.943Z,0.00
2022-11-03T07:44:44.634Z,0.00
2022-11-03T07:47:12.369Z,0.00
2022-11-03T07:49:40.041Z,0.00
2022-11-03T07:52:08.576Z,0.00
2022-11-03T07:54:36.253Z,0.00
2022-11-03T07:57:03.838Z,0.00
2022-11-03T07:59:31.645Z,0.25
2022-11-03T08:02:00.097Z,0.00
2022-11-03T08:04:30.265Z,0.50
2022-11-03T08:06:58.141Z,0.00
2022-11-03T08:09:26.066Z,0.00
2022-11-03T08:11:53.748Z,0.00
2022-11-03T08:14:21.445Z,0.00
2022-11-03T08:16:50.824Z,0.00
2022-11-03T08:19:18.588Z,0.00
2022-11-03T08:21:46.280Z,0.00
2022-11-03T08:24:14.351Z,0.00
2022-11-03T08:26:42.087Z,0.00
2022-11-03T08:29:10.580Z,1.00
2022-11-03T08:31:38.387Z,0.00
2022-11-03T08:34:06.112Z,0.00
2022-11-03T08:36:34.387Z,0.00
2022-11-03T08:39:02.176Z,0.00
2022-11-03T08:41:30.443Z,0.75
2022-11-03T08:43:58.186Z,0.00
2022-11-03T08:46:26.114Z,0.00
2022-11-03T08:48:53.935Z,0.00
2022-11-03T08:51:21.691Z,0.00
2022-11-03T08:53:54.147Z,0.00
2022-11-03T08:56:22.590Z,0.00
2022-11-03T08:58:50.659Z,0.00
2022-11-03T09:01:18.455Z,1.00
2022-11-03T09:03:46.257Z,0.00
2022-11-03T09:06:14.619Z,1.00
2022-11-03T09:11:30.245Z,0.00
2022-11-03T09:13:58.099Z,0.50
2022-11-03T09:16:27.104Z,0.25
2022-11-03T09:18:54.836Z,0.00
2022-11-03T09:21:22.591Z,0.00
2022-11-03T09:23:50.386Z,0.00
2022-11-03T09:26:18.258Z,0.00
2022-11-03T09:28:49.952Z,0.00
2022-11-03T09:31:17.668Z,0.00
2022-11-03T09:33:45.607Z,0.00
2022-11-03T09:36:13.431Z,0.50
2022-11-03T09:38:41.077Z,0.00
2022-11-03T09:41:18.772Z,0.00
2022-11-03T09:43:54.646Z,0.00
2022-11-03T09:46:22.462Z,0.00
2022-11-03T09:48:50.345Z,0.20
2022-11-03T09:51:19.374Z,0.00
2022-11-03T09:53:47.142Z,0.00
2022-11-03T09:56:14.931Z,0.40
2022-11-03T09:58:42.807Z,0.00
2022-11-03T10:01:10.631Z,0.00
2022-11-03T10:03:41.083Z,0.00
2022-11-03T10:06:11.104Z,1.00
2022-11-03T10:08:43.283Z,0.00
2022-11-03T10:11:11.086Z,0.20
2022-11-03T10:13:39.630Z,0.00
2022-11-03T10:16:08.026Z,0.00
2022-11-03T10:18:35.817Z,0.00
2022-11-03T10:21:03.604Z,0.00
2022-11-03T10:23:31.342Z,0.00
2022-11-03T10:25:59.825Z,0.00
2022-11-03T10:28:28.815Z,0.00
2022-11-03T10:31:10.662Z,0.00
2022-11-03T10:33:40.888Z,0.00
2022-11-03T10:36:09.145Z,0.80
2022-11-03T10:38:37.303Z,0.00
2022-11-03T10:41:05.352Z,1.00
2022-11-03T10:43:33.159Z,0.00
2022-11-03T10:46:00.889Z,0.00
2022-11-03T10:48:29.642Z,0.20
2022-11-03T10:50:58.129Z,0.00
2022-11-03T10:55:58.796Z,1.00
2022-11-03T10:58:26.673Z,0.00
2022-11-03T11:00:55.895Z,0.00
2022-11-03T11:03:24.400Z,0.00
2022-11-03T11:05:52.157Z,0.00
2022-11-03T11:08:19.983Z,0.00
2022-11-03T11:10:48.078Z,0.00
2022-11-03T11:13:17.952Z,1.00
2022-11-03T11:15:46.262Z,0.00
2022-11-03T11:18:15.073Z,0.00
2022-11-03T11:20:42.908Z,0.00
2022-11-03T11:23:11.005Z,0.00
2022-11-03T11:25:40.572Z,0.00
2022-11-03T11:28:08.850Z,0.00
2022-11-03T11:30:36.674Z,0.00
2022-11-03T11:33:04.876Z,0.00
2022-11-03T11:35:33.111Z,0.40
2022-11-03T11:38:03.031Z,0.00
2022-11-03T11:40:31.279Z,0.00
2022-11-03T11:42:59.094Z,0.00
2022-11-03T11:45:26.832Z,0.00
2022-11-03T11:47:54.804Z,0.60
2022-11-03T11:50:22.702Z,0.00
2022-11-03T11:52:50.774Z,0.00
2022-11-03T11:55:18.699Z,0.00
2022-11-03T11:57:46.984Z,0.00
2022-11-03T12:00:14.948Z,0.00
2022-11-03T12:02:44.980Z,0.00
2022-11-03T12:05:12.959Z,0.00
2022-11-03T12:07:40.725Z,0.00
2022-11-03T12:10:08.698Z,0.00
2022-11-03T12:12:36.987Z,1.00
2022-11-03T12:15:05.010Z,0.00
2022-11-03T12:17:32.969Z,0.00
2022-11-03T12:20:01.105Z,0.00
2022-11-03T12:22:29.420Z,0.00
2022-11-03T12:24:57.221Z,0.00
2022-11-03T12:27:26.553Z,0.00
2022-11-03T12:29:54.907Z,0.00
2022-11-03T12:32:34.012Z,0.60
2022-11-03T12:35:02.643Z,0.00
2022-11-03T12:37:30.651Z,0.40
2022-11-03T12:39:58.340Z,0.00
2022-11-03T12:42:26.357Z,0.00
2022-11-03T12:44:54.188Z,0.00
2022-11-03T12:47:21.938Z,0.00
2022-11-03T12:49:50.570Z,1.00
2022-11-03T12:52:18.524Z,0.00
2022-11-03T12:54:46.501Z,0.00
2022-11-03T12:57:14.849Z,0.00
2022-11-03T12:59:42.727Z,0.00
2022-11-03T13:02:13.748Z,0.00
2022-11-03T13:04:42.127Z,0.00
2022-11-03T13:07:09.976Z,0.00
2022-11-03T13:09:37.838Z,0.00
2022-11-03T13:12:23.277Z,0.00
2022-11-03T13:14:51.524Z,0.00
2022-11-03T13:17:19.316Z,0.00
2022-11-03T13:19:47.103Z,0.00
2022-11-03T13:22:15.135Z,0.00
2022-11-03T13:24:43.095Z,0.00
2022-11-03T13:27:13.023Z,1.00
2022-11-03T13:29:40.975Z,0.00
2022-11-03T13:32:08.708Z,0.00
2022-11-03T13:34:36.713Z,1.00
2022-11-03T13:37:04.962Z,0.00
2022-11-03T13:39:33.365Z,0.00
2022-11-03T13:42:01.811Z,0.40
2022-11-03T13:44:29.549Z,0.00
2022-11-03T13:46:57.300Z,0.20
2022-11-03T13:52:14.723Z,0.00
2022-11-03T14:00:18.232Z,1.00
2022-11-03T14:05:34.162Z,1.00
2022-11-03T14:08:01.992Z,0.60
2022-11-03T14:10:29.861Z,0.80
2022-11-03T14:12:57.188Z,1.00
2022-11-03T14:15:26.477Z,0.40
2022-11-03T14:17:54.465Z,0.00
2022-11-03T14:20:22.478Z,0.00
2022-11-03T14:22:50.665Z,0.00
2022-11-03T14:25:20.859Z,1.00
2022-11-03T14:27:51.029Z,1.00
2022-11-03T14:30:18.994Z,0.00
2022-11-03T14:32:46.931Z,0.50
2022-11-03T14:35:14.850Z,0.00
2022-11-03T14:37:42.986Z,1.00
2022-11-03T14:40:31.618Z,0.00
2022-11-03T14:42:58.727Z,0.00
2022-11-03T14:45:26.852Z,1.00
2022-11-03T14:47:55.031Z,1.00
2022-11-03T14:50:22.943Z,0.00
2022-11-03T14:52:50.792Z,1.00
2022-11-03T14:55:18.626Z,1.00
2022-11-03T14:57:46.429Z,1.00
2022-11-03T15:00:14.522Z,1.00
2022-11-03T15:02:43.648Z,1.00
2022-11-03T15:05:32.484Z,1.00
2022-11-03T15:08:00.550Z,1.00
2022-11-03T15:10:28.831Z,1.00
2022-11-03T15:12:57.620Z,1.00
2022-11-03T15:15:25.669Z,0.25
2022-11-03T15:40:17.132Z,2.00
2022-11-03T15:45:47.762Z,0.00
2022-11-03T15:48:15.544Z,0.00
2022-11-03T15:50:44.572Z,1.00
2022-11-03T15:56:21.734Z,3.00
2022-11-03T15:58:49.835Z,1.00
2022-11-03T16:01:18.212Z,1.00
2022-11-03T16:03:46.288Z,1.00
2022-11-03T16:06:14.307Z,0.25
2022-11-03T16:08:42.034Z,1.00
2022-11-03T16:11:09.955Z,1.50
2022-11-03T16:13:39.783Z,1.00
2022-11-03T16:16:07.755Z,1.00
2022-11-03T16:18:35.796Z,1.00
2022-11-03T16:21:04.047Z,3.00
2022-11-03T16:23:32.351Z,1.00
2022-11-03T16:26:00.523Z,1.00
2022-11-03T16:28:28.464Z,1.00
2022-11-03T16:30:56.253Z,1.00
2022-11-03T16:33:24.172Z,2.50
2022-11-03T16:35:52.140Z,1.00
2022-11-03T16:38:20.437Z,0.00
2022-11-03T16:40:48.494Z,1.00
2022-11-03T16:43:16.655Z,1.00
2022-11-03T16:45:44.434Z,1.50
2022-11-03T16:48:12.297Z,1.00
2022-11-03T16:50:43.044Z,1.00
2022-11-03T16:53:12.611Z,3.00
2022-11-03T16:55:40.527Z,2.50
2022-11-03T16:58:08.442Z,2.00
2022-11-03T17:00:36.375Z,1.50
2022-11-03T17:03:04.681Z,1.00
2022-11-03T17:05:32.975Z,1.00
2022-11-03T17:08:00.880Z,2.50
2022-11-03T17:10:29.334Z,3.00
2022-11-03T17:12:57.110Z,2.00
2022-11-03T17:15:25.633Z,2.00
2022-11-03T17:17:53.468Z,2.00
2022-11-03T17:20:21.345Z,1.00
2022-11-03T17:22:49.212Z,3.25
2022-11-03T17:25:17.042Z,1.00
2022-11-03T17:27:45.843Z,3.00
2022-11-03T17:30:13.802Z,3.00
2022-11-03T17:32:41.649Z,3.75
2022-11-03T17:35:10.193Z,1.00
2022-11-03T17:37:38.130Z,3.00
2022-11-03T17:40:06.928Z,3.00
2022-11-03T17:42:34.749Z,3.00
2022-11-03T17:45:02.978Z,1.00
2022-11-03T17:47:31.914Z,1.00
2022-11-03T17:50:00.862Z,3.00
2022-11-03T17:52:31.290Z,1.00
2022-11-03T17:54:59.125Z,0.00
2022-11-03T17:57:26.934Z,3.00
2022-11-03T17:59:54.986Z,3.00
2022-11-03T18:02:22.909Z,3.00
2022-11-03T18:04:52.482Z,3.00
2022-11-03T18:07:20.702Z,0.50
2022-11-03T18:09:48.433Z,2.50
2022-11-03T18:12:29.979Z,3.00
2022-11-03T18:14:58.204Z,1.50
2022-11-03T18:17:25.987Z,1.00
2022-11-03T18:19:53.915Z,3.00
2022-11-03T18:22:21.694Z,3.00
2022-11-03T18:24:49.538Z,3.00
2022-11-03T18:27:22.688Z,1.00
2022-11-03T18:29:52.820Z,3.00
2022-11-03T18:32:21.019Z,1.50
2022-11-03T18:34:48.961Z,3.00
2022-11-03T18:37:16.768Z,3.00
2022-11-03T18:39:46.854Z,3.00
2022-11-03T18:42:14.651Z,1.00
2022-11-03T18:44:43.247Z,3.00
2022-11-03T18:47:11.257Z,3.00
2022-11-03T18:49:39.060Z,2.00
2022-11-03T18:52:08.259Z,3.00
2022-11-03T18:54:36.468Z,1.00
2022-11-03T18:57:04.262Z,3.25
2022-11-03T18:59:32.295Z,1.00
2022-11-03T19:02:00.339Z,3.00
2022-11-03T19:04:29.966Z,2.00
2022-11-03T19:06:58.749Z,3.00
2022-11-03T19:09:26.562Z,3.00
2022-11-03T19:11:54.380Z,0.50
2022-11-03T19:14:22.220Z,4.00
2022-11-03T19:17:21.324Z,3.75
2022-11-03T19:19:39.948Z,3.00
2022-11-03T19:22:07.810Z,3.00
2022-11-03T19:24:35.598Z,1.00
2022-11-03T19:27:04.209Z,3.25
2022-11-03T19:29:32.043Z,3.00
2022-11-03T19:31:59.885Z,3.00
2022-11-03T19:34:27.717Z,3.00
2022-11-03T19:36:55.853Z,1.00
2022-11-03T19:39:24.782Z,3.00
2022-11-03T19:42:10.140Z,2.50
2022-11-03T19:44:37.928Z,3.00
2022-11-03T19:47:05.792Z,3.00
2022-11-03T19:49:34.624Z,4.00
2022-11-03T19:52:02.356Z,3.75
2022-11-03T19:54:31.242Z,3.25
2022-11-03T19:56:59.314Z,2.00
2022-11-03T19:59:27.299Z,3.00
2022-11-03T20:01:55.669Z,4.00
2022-11-03T20:04:23.500Z,3.50
2022-11-03T20:06:51.420Z,3.50
2022-11-03T20:09:19.732Z,4.00
2022-11-03T20:11:47.569Z,4.00
2022-11-03T20:14:16.694Z,3.00
2022-11-03T20:16:44.508Z,3.00
2022-11-03T20:19:12.650Z,3.00
2022-11-03T20:21:41.259Z,4.00
2022-11-03T20:24:09.125Z,3.00
2022-11-03T20:26:37.399Z,3.75
2022-11-03T20:29:05.314Z,3.50
2022-11-03T20:31:33.166Z,3.00
2022-11-03T20:34:01.093Z,1.00
2022-11-03T20:36:28.916Z,0.50
2022-11-03T20:39:00.059Z,1.00
2022-11-03T20:41:28.024Z,1.00
2022-11-03T20:43:55.802Z,3.00
2022-11-03T20:46:23.568Z,3.25
2022-11-03T20:48:51.483Z,3.75
2022-11-03T20:51:19.717Z,1.00
2022-11-03T20:53:47.832Z,3.00
2022-11-03T20:56:19.431Z,1.00
2022-11-03T20:58:47.736Z,2.50
2022-11-03T21:01:16.228Z,3.00
2022-11-03T21:03:58.801Z,1.00
2022-11-03T21:06:27.305Z,1.00
2022-11-03T21:08:55.451Z,1.00
2022-11-03T21:11:27.717Z,0.00
2022-11-03T21:13:57.411Z,3.00
2022-11-03T21:16:42.523Z,3.00
2022-11-03T21:19:27.601Z,3.00
2022-11-03T21:21:55.313Z,3.00
2022-11-03T21:26:59.279Z,2.50
2022-11-03T21:29:53.351Z,2.00
2022-11-03T21:32:15.058Z,1.00
2022-11-03T21:34:43.070Z,1.00
2022-11-03T21:37:11.561Z,2.00
2022-11-03T21:39:39.424Z,0.00
2022-11-03T21:42:24.363Z,3.00
2022-11-03T21:44:55.791Z,0.00
2022-11-03T21:47:23.442Z,0.00
2022-11-03T21:49:50.054Z,1.00
2022-11-03T21:52:18.000Z,0.00
2022-11-03T21:54:45.801Z,0.00
2022-11-03T21:57:15.177Z,0.00
2022-11-03T21:59:42.856Z,0.25
2022-11-03T22:02:10.651Z,1.00
2022-11-03T22:04:38.431Z,1.00
2022-11-03T22:07:06.767Z,0.00
2022-11-03T22:09:34.714Z,0.50
2022-11-03T22:12:02.440Z,0.75
2022-11-03T22:14:50.133Z,1.00
2022-11-03T22:17:16.763Z,1.00
2022-11-03T22:20:01.869Z,1.00
2022-11-03T22:22:46.808Z,1.00
2022-11-03T22:25:31.869Z,1.00
2022-11-03T22:27:59.857Z,0.75
2022-11-03T22:30:45.176Z,0.25
2022-11-03T22:33:12.886Z,1.00
2022-11-03T22:35:58.225Z,0.00
2022-11-03T22:38:48.494Z,0.00
2022-11-03T22:41:33.709Z,0.50
2022-11-03T22:44:18.806Z,1.00
2022-11-03T22:46:46.403Z,0.00
2022-11-03T22:49:14.635Z,1.00
2022-11-03T22:51:42.272Z,1.00
2022-11-03T22:54:11.715Z,1.00
2022-11-03T22:56:39.292Z,1.00
2022-11-03T22:59:06.832Z,0.00
2022-11-03T23:01:35.874Z,0.50
2022-11-03T23:04:03.851Z,0.50
2022-11-03T23:06:31.542Z,1.50
2022-11-03T23:08:59.147Z,0.25
2022-11-03T23:11:26.703Z,0.50
2022-11-03T23:13:54.641Z,1.00
2022-11-03T23:16:22.248Z,0.25
2022-11-03T23:19:07.314Z,0.75
2022-11-03T23:21:34.914Z,1.00
2022-11-03T23:24:20.456Z,0.00
2022-11-03T23:26:48.070Z,1.00
2022-11-03T23:29:15.680Z,1.00
2022-11-03T23:31:43.544Z,0.50
2022-11-03T23:34:11.155Z,1.00
2022-11-03T23:36:39.157Z,1.00
2022-11-03T23:39:06.815Z,0.00
2022-11-03T23:41:34.394Z,2.00
2022-11-03T23:44:01.934Z,0.50
2022-11-03T23:46:47.249Z,0.00
2022-11-03T23:49:14.789Z,1.00
2022-11-03T23:51:42.731Z,1.00
2022-11-03T23:54:10.319Z,0.00
2022-11-03T23:56:55.503Z,1.00
2022-11-03T23:59:23.096Z,1.00
